createdAt,value
2019-01-09T00:02:26.521Z,1.77
2019-01-09T00:05:15.868Z,1.53
2019-01-09T00:08:05.132Z,1.80
2019-01-09T00:10:47.485Z,1.63
2019-01-09T00:13:29.749Z,1.73
2019-01-09T00:16:11.895Z,1.27
2019-01-09T00:18:54.095Z,1.50
2019-01-09T00:21:36.530Z,1.30
2019-01-09T00:24:18.726Z,1.60
2019-01-09T00:27:00.936Z,1.53
2019-01-09T00:29:43.224Z,1.63
2019-01-09T00:32:24.972Z,1.70
2019-01-09T00:35:07.332Z,1.67
2019-01-09T00:37:49.599Z,1.43
2019-01-09T00:40:31.197Z,1.50
2019-01-09T00:43:13.570Z,1.80
2019-01-09T00:45:55.724Z,1.90
2019-01-09T00:48:36.163Z,1.30
2019-01-09T00:51:25.469Z,1.60
2019-01-09T00:54:14.809Z,1.40
2019-01-09T00:57:04.080Z,1.63
2019-01-09T00:59:53.417Z,1.67
2019-01-09T01:03:01.817Z,1.30
2019-01-09T01:06:10.261Z,1.40
2019-01-09T01:09:18.650Z,1.40
2019-01-09T01:12:01.127Z,1.63
2019-01-09T01:14:43.339Z,1.37
2019-01-09T01:17:25.119Z,1.40
2019-01-09T01:20:07.474Z,1.43
2019-01-09T01:22:49.313Z,1.60
2019-01-09T01:25:30.811Z,1.17
2019-01-09T01:28:13.094Z,1.47
2019-01-09T01:30:54.560Z,1.73
2019-01-09T01:33:36.273Z,1.50
2019-01-09T01:36:18.089Z,1.77
2019-01-09T01:38:59.773Z,1.40
2019-01-09T01:41:41.890Z,1.47
2019-01-09T01:44:23.904Z,1.27
2019-01-09T01:47:06.328Z,1.50
2019-01-09T01:49:48.493Z,1.70
2019-01-09T01:52:50.681Z,1.67
2019-01-09T01:55:43.881Z,1.40
2019-01-09T01:58:52.259Z,1.30
2019-01-09T02:02:00.670Z,1.13
2019-01-09T02:05:09.069Z,1.30
2019-01-09T02:08:17.471Z,2.13
2019-01-09T02:10:59.306Z,1.20
2019-01-09T02:13:40.744Z,1.20
2019-01-09T02:16:23.146Z,1.30
2019-01-09T02:19:04.648Z,1.57
2019-01-09T02:21:46.258Z,1.40
2019-01-09T02:24:28.077Z,1.40
2019-01-09T02:27:09.696Z,1.50
2019-01-09T02:29:51.705Z,1.30
2019-01-09T02:32:33.992Z,1.37
2019-01-09T02:35:16.155Z,1.80
2019-01-09T02:37:58.454Z,1.20
2019-01-09T02:40:40.530Z,1.40
2019-01-09T02:43:22.463Z,1.30
2019-01-09T02:46:04.716Z,1.93
2019-01-09T02:48:48.612Z,1.30
2019-01-09T02:51:29.560Z,1.30
2019-01-09T02:54:11.001Z,1.73
2019-01-09T02:56:52.582Z,2.17
2019-01-09T03:03:07.974Z,1.60
2019-01-09T03:05:49.750Z,1.47
2019-01-09T03:08:31.366Z,1.50
2019-01-09T03:14:13.345Z,1.60
2019-01-09T03:16:54.952Z,1.40
2019-01-09T03:19:36.973Z,1.70
2019-01-09T03:22:18.970Z,1.33
2019-01-09T03:25:00.510Z,1.80
2019-01-09T03:27:42.917Z,1.47
2019-01-09T03:30:24.545Z,1.60
2019-01-09T03:33:06.438Z,1.77
2019-01-09T03:35:48.593Z,1.70
2019-01-09T03:38:30.868Z,1.30
2019-01-09T03:41:13.261Z,1.50
2019-01-09T03:43:55.705Z,1.47
2019-01-09T03:46:37.801Z,1.40
2019-01-09T03:49:19.601Z,1.00
2019-01-09T03:52:01.919Z,1.23
2019-01-09T03:54:42.377Z,1.17
2019-01-09T03:57:31.716Z,1.10
2019-01-09T04:00:21.071Z,1.20
2019-01-09T04:03:10.414Z,1.40
2019-01-09T04:05:59.784Z,1.23
2019-01-09T04:08:49.121Z,1.50
2019-01-09T04:11:31.376Z,1.00
2019-01-09T04:14:13.786Z,1.17
2019-01-09T04:16:56.114Z,0.73
2019-01-09T04:19:38.463Z,1.30
2019-01-09T04:22:20.594Z,1.27
2019-01-09T04:25:02.738Z,1.43
2019-01-09T04:27:44.858Z,1.47
2019-01-09T04:30:27.114Z,1.40
2019-01-09T04:33:08.754Z,1.57
2019-01-09T04:35:50.772Z,1.60
2019-01-09T04:38:33.072Z,1.03
2019-01-09T04:41:14.928Z,1.30
2019-01-09T04:43:56.790Z,1.53
2019-01-09T04:46:38.901Z,1.10
2019-01-09T04:49:20.560Z,1.20
2019-01-09T04:52:02.528Z,1.00
2019-01-09T04:54:44.633Z,1.00
2019-01-09T04:57:26.208Z,1.43
2019-01-09T05:00:08.558Z,1.27
2019-01-09T05:02:50.277Z,1.30
2019-01-09T05:05:32.666Z,1.10
2019-01-09T05:08:14.162Z,1.50
2019-01-09T05:10:56.328Z,1.20
2019-01-09T05:13:38.552Z,1.10
2019-01-09T05:16:20.537Z,1.50
2019-01-09T05:19:02.238Z,1.57
2019-01-09T05:21:44.296Z,1.47
2019-01-09T05:24:24.735Z,1.30
2019-01-09T05:27:14.017Z,1.90
2019-01-09T05:30:03.398Z,1.40
2019-01-09T05:32:52.669Z,2.30
2019-01-09T05:35:41.980Z,1.97
2019-01-09T05:38:31.277Z,1.80
2019-01-09T05:41:20.604Z,1.67
2019-01-09T05:44:09.964Z,1.30
2019-01-09T05:46:51.497Z,1.37
2019-01-09T05:49:33.296Z,2.10
2019-01-09T05:52:15.100Z,2.00
2019-01-09T05:54:57.544Z,1.50
2019-01-09T05:57:39.645Z,1.60
2019-01-09T06:00:21.892Z,1.70
2019-01-09T06:03:04.078Z,1.40
2019-01-09T06:05:45.896Z,1.80
2019-01-09T06:08:28.104Z,1.90
2019-01-09T06:11:10.118Z,2.07
2019-01-09T06:13:51.642Z,1.90
2019-01-09T06:16:33.781Z,2.53
2019-01-09T06:19:16.298Z,1.70
2019-01-09T06:21:58.444Z,1.87
2019-01-09T06:24:40.494Z,1.70
2019-01-09T06:27:22.030Z,1.67
2019-01-09T06:30:06.353Z,1.40
2019-01-09T06:32:48.148Z,1.57
2019-01-09T06:35:29.657Z,1.50
2019-01-09T06:38:11.280Z,1.40
2019-01-09T06:40:53.262Z,0.90
2019-01-09T06:43:35.256Z,0.97
2019-01-09T06:46:17.711Z,1.30
2019-01-09T06:48:59.165Z,0.90
2019-01-09T06:51:41.281Z,1.20
2019-01-09T06:54:23.651Z,0.90
2019-01-09T06:57:05.506Z,0.60
2019-01-09T06:59:47.990Z,0.80
2019-01-09T07:02:30.016Z,0.70
2019-01-09T07:05:11.560Z,7.27
2019-01-09T07:07:54.052Z,1.53
2019-01-09T07:10:36.038Z,0.90
2019-01-09T07:13:18.293Z,10.40
2019-01-09T07:16:00.622Z,5.77
2019-01-09T07:18:42.635Z,1.27
2019-01-09T07:21:24.643Z,0.90
2019-01-09T07:24:06.647Z,0.80
2019-01-09T07:26:48.757Z,0.70
2019-01-09T07:29:30.399Z,1.60
2019-01-09T07:32:12.294Z,0.97
2019-01-09T07:34:54.533Z,1.30
2019-01-09T07:37:44.673Z,1.07
2019-01-09T07:40:19.673Z,1.13
2019-01-09T07:43:01.988Z,1.07
2019-01-09T07:45:43.672Z,1.03
2019-01-09T07:48:25.549Z,1.63
2019-01-09T07:51:07.589Z,1.50
2019-01-09T07:53:49.977Z,2.10
2019-01-09T07:56:31.706Z,1.67
2019-01-09T07:59:13.626Z,1.67
2019-01-09T08:01:55.800Z,1.80
2019-01-09T08:07:36.444Z,2.10
2019-01-09T08:10:18.219Z,2.27
2019-01-09T08:13:00.100Z,2.20
2019-01-09T08:18:42.586Z,2.30
2019-01-09T08:21:24.682Z,2.20
2019-01-09T08:27:06.104Z,2.00
2019-01-09T08:29:48.376Z,3.07
2019-01-09T08:32:30.251Z,2.50
2019-01-09T08:35:12.241Z,2.07
2019-01-09T08:38:02.456Z,2.67
2019-01-09T08:40:37.625Z,1.80
2019-01-09T08:43:19.671Z,1.40
2019-01-09T08:46:01.488Z,2.13
2019-01-09T08:48:43.298Z,3.80
2019-01-09T08:51:24.944Z,2.83
2019-01-09T08:54:06.950Z,1.90
2019-01-09T08:56:49.291Z,1.37
2019-01-09T08:59:31.212Z,1.00
2019-01-09T09:05:11.828Z,1.20
2019-01-09T09:07:53.401Z,1.20
2019-01-09T09:10:35.449Z,1.20
2019-01-09T09:13:19.472Z,1.30
2019-01-09T09:16:01.309Z,1.63
2019-01-09T09:18:42.876Z,2.00
2019-01-09T09:21:24.597Z,1.73
2019-01-09T09:24:06.617Z,1.70
2019-01-09T09:26:48.817Z,2.40
2019-01-09T09:29:32.082Z,3.90
2019-01-09T09:32:13.894Z,3.23
2019-01-09T09:34:56.277Z,2.30
2019-01-09T09:37:37.852Z,1.57
2019-01-09T09:40:20.193Z,6.30
2019-01-09T09:46:35.589Z,2.10
2019-01-09T09:49:17.638Z,2.17
2019-01-09T09:51:59.145Z,1.80
2019-01-09T09:54:41.374Z,2.10
2019-01-09T09:57:23.831Z,2.00
2019-01-09T10:00:05.841Z,1.57
2019-01-09T10:02:47.288Z,2.17
2019-01-09T10:08:29.430Z,1.90
2019-01-09T10:11:12.141Z,4.67
2019-01-09T10:13:54.029Z,2.93
2019-01-09T10:16:35.753Z,3.33
2019-01-09T10:19:17.372Z,7.93
2019-01-09T10:21:59.486Z,11.73
2019-01-09T10:24:41.621Z,11.03
2019-01-09T10:27:23.675Z,2.63
2019-01-09T10:30:06.197Z,7.83
2019-01-09T10:32:48.365Z,3.10
2019-01-09T10:35:30.593Z,2.57
2019-01-09T10:38:12.705Z,2.10
2019-01-09T10:40:55.104Z,1.70
2019-01-09T10:43:37.215Z,1.83
2019-01-09T10:46:18.098Z,2.00
2019-01-09T10:49:07.442Z,2.03
2019-01-09T10:51:49.078Z,3.87
2019-01-09T10:54:31.581Z,2.23
2019-01-09T10:57:13.720Z,2.13
2019-01-09T10:59:55.782Z,2.57
2019-01-09T11:02:38.177Z,2.07
2019-01-09T11:05:20.136Z,2.47
2019-01-09T11:08:01.697Z,1.77
2019-01-09T11:10:43.900Z,2.20
2019-01-09T11:13:25.672Z,2.33
2019-01-09T11:16:08.013Z,1.93
2019-01-09T11:18:50.194Z,2.30
2019-01-09T11:24:31.452Z,1.80
2019-01-09T11:27:13.525Z,2.33
2019-01-09T11:29:55.381Z,2.40
2019-01-09T11:32:37.548Z,2.70
2019-01-09T11:35:19.801Z,2.80
2019-01-09T11:38:02.257Z,2.70
2019-01-09T11:40:44.445Z,2.67
2019-01-09T11:43:26.030Z,1.90
2019-01-09T11:46:08.321Z,2.73
2019-01-09T11:48:49.902Z,2.10
2019-01-09T11:51:31.866Z,2.00
2019-01-09T11:54:14.046Z,2.10
2019-01-09T11:56:55.928Z,1.97
2019-01-09T11:59:38.422Z,2.03
2019-01-09T12:02:22.217Z,2.43
2019-01-09T12:05:04.364Z,2.00
2019-01-09T12:07:46.355Z,2.83
2019-01-09T12:10:30.262Z,3.00
2019-01-09T12:13:12.314Z,2.57
2019-01-09T12:15:53.846Z,2.17
2019-01-09T12:18:36.261Z,1.87
2019-01-09T12:21:18.206Z,2.17
2019-01-09T12:23:59.650Z,1.70
2019-01-09T12:26:42.164Z,2.00
2019-01-09T12:29:24.405Z,1.83
2019-01-09T12:32:06.793Z,2.73
2019-01-09T12:34:48.957Z,1.50
2019-01-09T12:37:31.056Z,2.10
2019-01-09T12:40:13.368Z,1.70
2019-01-09T12:42:55.823Z,1.83
2019-01-09T12:45:37.610Z,2.00
2019-01-09T12:48:19.869Z,1.60
2019-01-09T12:51:01.837Z,2.23
2019-01-09T12:53:43.792Z,1.83
2019-01-09T12:56:27.386Z,8.83
2019-01-09T12:59:09.645Z,2.23
2019-01-09T13:04:54.080Z,1.87
2019-01-09T13:07:36.270Z,2.03
2019-01-09T13:10:17.986Z,2.20
2019-01-09T13:12:59.589Z,2.30
2019-01-09T13:15:41.135Z,1.53
2019-01-09T13:18:23.320Z,2.00
2019-01-09T13:21:05.484Z,1.87
2019-01-09T13:23:47.660Z,1.90
2019-01-09T13:26:29.669Z,2.03
2019-01-09T13:29:11.554Z,2.17
2019-01-09T13:31:53.551Z,2.13
2019-01-09T13:34:35.957Z,2.30
2019-01-09T13:37:17.837Z,2.30
2019-01-09T13:39:59.791Z,2.20
2019-01-09T13:42:41.757Z,1.63
2019-01-09T13:45:24.225Z,1.83
2019-01-09T13:48:06.053Z,1.60
2019-01-09T13:50:48.264Z,1.80
2019-01-09T13:53:30.414Z,1.90
2019-01-09T13:56:12.368Z,2.20
2019-01-09T13:58:54.260Z,1.67
2019-01-09T14:01:36.306Z,2.07
2019-01-09T14:04:18.371Z,1.73
2019-01-09T14:07:00.760Z,1.90
2019-01-09T14:09:42.669Z,1.57
2019-01-09T14:12:24.529Z,2.30
2019-01-09T14:15:06.638Z,1.40
2019-01-09T14:17:48.976Z,1.60
2019-01-09T14:20:31.028Z,1.60
2019-01-09T14:23:13.012Z,1.60
2019-01-09T14:25:55.124Z,1.90
2019-01-09T14:28:37.494Z,2.10
2019-01-09T14:31:20.054Z,2.00
2019-01-09T14:34:02.295Z,2.03
2019-01-09T14:36:44.722Z,1.90
2019-01-09T14:39:26.628Z,1.73
2019-01-09T14:42:08.751Z,2.60
2019-01-09T14:44:50.273Z,1.87
2019-01-09T14:47:31.837Z,2.53
2019-01-09T14:50:13.767Z,2.33
2019-01-09T14:52:55.835Z,3.00
2019-01-09T14:55:38.202Z,2.60
2019-01-09T14:58:20.624Z,2.27
2019-01-09T15:01:02.815Z,2.50
2019-01-09T15:03:44.710Z,2.70
2019-01-09T15:06:26.852Z,2.80
2019-01-09T15:09:08.728Z,3.13
2019-01-09T15:11:50.653Z,2.57
2019-01-09T15:14:32.209Z,2.70
2019-01-09T15:17:14.264Z,2.60
2019-01-09T15:19:56.383Z,2.87
2019-01-09T15:22:38.034Z,2.60
2019-01-09T15:25:20.069Z,2.60
2019-01-09T15:28:02.325Z,2.67
2019-01-09T15:30:43.877Z,2.60
2019-01-09T15:33:25.849Z,3.60
2019-01-09T15:36:08.218Z,2.87
2019-01-09T15:38:48.631Z,2.77
2019-01-09T15:41:38.007Z,2.13
2019-01-09T15:44:27.381Z,2.37
2019-01-09T15:47:16.749Z,2.10
2019-01-09T15:50:06.891Z,2.10
2019-01-09T15:53:15.680Z,1.87
2019-01-09T15:56:05.121Z,1.90
2019-01-09T15:58:54.453Z,1.53
2019-01-09T16:01:43.792Z,1.70
2019-01-09T16:04:33.150Z,1.77
2019-01-09T16:07:22.522Z,1.77
2019-01-09T16:10:14.789Z,2.07
2019-01-09T16:13:22.437Z,2.07
2019-01-09T16:16:11.853Z,2.53
2019-01-09T16:19:01.196Z,2.97
2019-01-09T16:21:50.570Z,2.20
2019-01-09T16:24:39.351Z,2.30
2019-01-09T16:27:28.579Z,2.47
2019-01-09T16:30:36.987Z,2.20
2019-01-09T16:33:26.340Z,3.17
2019-01-09T16:36:17.290Z,2.77
2019-01-09T16:39:08.209Z,2.83
2019-01-09T16:41:57.470Z,2.83
2019-01-09T16:44:46.741Z,2.97
2019-01-09T16:47:36.077Z,2.67
2019-01-09T16:50:25.517Z,2.90
2019-01-09T16:53:14.826Z,3.10
2019-01-09T16:56:04.435Z,2.63
2019-01-09T16:58:53.932Z,2.63
2019-01-09T17:01:43.325Z,2.43
2019-01-09T17:04:32.613Z,2.37
2019-01-09T17:07:22.047Z,2.50
2019-01-09T17:10:11.893Z,2.73
2019-01-09T17:13:20.771Z,2.90
2019-01-09T17:16:10.193Z,3.50
2019-01-09T17:18:59.644Z,3.17
2019-01-09T17:21:49.020Z,3.10
2019-01-09T17:24:38.420Z,5.23
2019-01-09T17:27:27.906Z,4.00
2019-01-09T17:30:19.001Z,4.37
2019-01-09T17:33:08.383Z,3.43
2019-01-09T17:35:50.225Z,3.47
2019-01-09T17:38:32.803Z,4.30
2019-01-09T17:41:15.174Z,3.67
2019-01-09T17:43:45.544Z,3.77
2019-01-09T17:46:35.071Z,4.10
2019-01-09T17:49:24.425Z,3.80
2019-01-09T17:52:13.790Z,3.67
2019-01-09T17:55:03.186Z,3.47
2019-01-09T17:57:52.545Z,3.73
2019-01-09T18:03:57.818Z,2.40
2019-01-09T18:06:47.210Z,3.00
2019-01-09T18:09:36.623Z,3.07
2019-01-09T18:12:26.016Z,3.13
2019-01-09T18:22:08.222Z,2.80
2019-01-09T18:24:57.584Z,3.00
2019-01-09T18:27:46.928Z,5.37
2019-01-09T18:31:03.287Z,3.97
2019-01-09T18:33:38.822Z,3.20
2019-01-09T18:36:20.961Z,7.23
2019-01-09T18:39:04.373Z,4.23
2019-01-09T18:41:46.263Z,2.80
2019-01-09T18:44:28.291Z,10.97
2019-01-09T18:47:10.653Z,4.73
2019-01-09T18:49:52.731Z,3.40
2019-01-09T18:52:34.517Z,3.00
2019-01-09T18:55:16.555Z,4.43
2019-01-09T18:57:58.781Z,4.23
2019-01-09T19:00:41.285Z,4.30
2019-01-09T19:03:23.676Z,3.63
2019-01-09T19:06:05.462Z,3.60
2019-01-09T19:08:47.438Z,3.97
2019-01-09T19:11:29.676Z,3.87
2019-01-09T19:14:11.262Z,3.90
2019-01-09T19:16:53.066Z,4.33
2019-01-09T19:19:35.441Z,4.43
2019-01-09T19:22:17.201Z,4.50
2019-01-09T19:24:59.368Z,4.23
2019-01-09T19:27:41.336Z,3.33
2019-01-09T19:30:23.251Z,3.67
2019-01-09T19:33:05.393Z,4.20
2019-01-09T19:35:47.758Z,3.80
2019-01-09T19:38:29.538Z,4.10
2019-01-09T19:41:16.917Z,4.33
2019-01-09T19:43:56.140Z,5.00
2019-01-09T19:46:38.150Z,5.13
2019-01-09T19:49:20.053Z,4.70
2019-01-09T19:52:02.366Z,4.40
2019-01-09T19:54:44.057Z,4.20
2019-01-09T19:57:25.871Z,4.60
2019-01-09T20:00:08.242Z,3.77
2019-01-09T20:02:49.998Z,3.80
2019-01-09T20:05:32.311Z,3.83
2019-01-09T20:08:14.373Z,3.93
2019-01-09T20:10:56.529Z,4.23
2019-01-09T20:13:38.481Z,3.30
2019-01-09T20:16:20.533Z,4.37
2019-01-09T20:19:02.618Z,3.80
2019-01-09T20:21:44.489Z,4.23
2019-01-09T20:24:26.664Z,3.20
2019-01-09T20:27:08.817Z,2.97
2019-01-09T20:29:50.475Z,2.70
2019-01-09T20:32:32.490Z,2.77
2019-01-09T20:35:14.676Z,3.50
2019-01-09T20:37:56.580Z,4.20
2019-01-09T20:40:39.182Z,3.23
2019-01-09T20:43:21.090Z,3.37
2019-01-09T20:46:03.385Z,3.30
2019-01-09T20:48:45.344Z,2.87
2019-01-09T20:51:27.862Z,3.10
2019-01-09T20:54:10.061Z,2.80
2019-01-09T20:56:51.890Z,2.20
2019-01-09T20:59:33.729Z,2.43
2019-01-09T21:02:15.457Z,3.13
2019-01-09T21:04:57.553Z,2.70
2019-01-09T21:07:39.463Z,2.40
2019-01-09T21:10:21.206Z,2.20
2019-01-09T21:13:03.123Z,2.20
2019-01-09T21:15:44.989Z,1.97
2019-01-09T21:18:27.284Z,2.27
2019-01-09T21:23:59.561Z,2.50
2019-01-09T21:26:49.300Z,2.43
2019-01-09T21:29:38.637Z,2.50
2019-01-09T21:32:28.061Z,2.00
2019-01-09T21:35:17.656Z,2.30
2019-01-09T21:38:07.157Z,2.90
2019-01-09T21:40:56.495Z,2.73
2019-01-09T21:43:45.879Z,2.50
2019-01-09T21:46:35.187Z,3.00
2019-01-09T21:49:24.441Z,2.87
2019-01-09T21:52:13.713Z,2.40
2019-01-09T21:55:03.048Z,2.43
2019-01-09T21:57:52.434Z,2.27
2019-01-09T22:00:41.896Z,2.40
2019-01-09T22:03:24.113Z,2.30
2019-01-09T22:06:06.264Z,2.50
2019-01-09T22:08:48.176Z,2.33
2019-01-09T22:11:30.277Z,2.53
2019-01-09T22:14:12.036Z,2.33
2019-01-09T22:16:53.976Z,2.73
2019-01-09T22:19:35.880Z,2.50
2019-01-09T22:22:18.321Z,2.47
2019-01-09T22:25:00.550Z,2.57
2019-01-09T22:27:42.262Z,3.23
2019-01-09T22:30:23.899Z,2.50
2019-01-09T22:33:06.106Z,2.77
2019-01-09T22:35:48.227Z,3.00
2019-01-09T22:38:30.369Z,2.67
2019-01-09T22:41:12.739Z,3.60
2019-01-09T22:43:54.336Z,3.60
2019-01-09T22:46:36.435Z,3.43
2019-01-09T22:49:16.769Z,3.47
2019-01-09T22:52:06.067Z,3.77
2019-01-09T22:54:55.322Z,4.23
2019-01-09T22:57:44.626Z,4.17
2019-01-09T23:00:53.390Z,3.13
2019-01-09T23:03:42.865Z,3.50
2019-01-09T23:06:32.133Z,3.87
2019-01-09T23:09:21.480Z,3.23
2019-01-09T23:12:10.849Z,3.80
2019-01-09T23:15:00.270Z,3.77
2019-01-09T23:17:49.639Z,4.13
2019-01-09T23:20:38.920Z,4.07
2019-01-09T23:23:28.260Z,4.00
2019-01-09T23:26:17.536Z,4.83
2019-01-09T23:29:06.874Z,4.93
2019-01-09T23:31:56.373Z,5.13
2019-01-09T23:34:45.705Z,4.33
2019-01-09T23:37:35.023Z,3.90
2019-01-09T23:40:24.292Z,5.13
2019-01-09T23:43:13.749Z,4.20
2019-01-09T23:46:02.984Z,4.60
2019-01-09T23:48:44.898Z,4.50
2019-01-09T23:51:26.885Z,4.60
2019-01-09T23:54:09.050Z,4.60
2019-01-09T23:56:51.249Z,4.60
2019-01-09T23:59:33.581Z,4.20
